sensor_id;sensor_type;location;lat;lon;timestamp;temperature;humidity
26745;DHT22;14342;50.960;13.880;2022-09-09T00:00:22;17.30;99.90
26745;DHT22;14342;50.960;13.880;2022-09-09T00:01:28;17.30;99.90
26745;DHT22;14342;50.960;13.880;2022-09-09T00:02:31;17.20;99.90
26745;DHT22;14342;50.960;13.880;2022-09-09T00:03:34;17.20;99.90
26745;DHT22;14342;50.960;13.880;2022-09-09T00:04:38;17.20;99.90
26745;DHT22;14342;50.960;13.880;2022-09-09T00:05:42;17.30;99.90
26745;DHT22;14342;50.960;13.880;2022-09-09T00:06:44;17.30;99.90
26745;DHT22;14342;50.960;13.880;2022-09-09T00:07:49;17.20;99.90
26745;DHT22;14342;50.960;13.880;2022-09-09T00:08:53;17.20;99.90
26745;DHT22;14342;50.960;13.880;2022-09-09T00:09:59;17.10;99.90
26745;DHT22;14342;50.960;13.880;2022-09-09T00:11:01;17.10;99.90
26745;DHT22;14342;50.960;13.880;2022-09-09T00:12:06;17.10;99.90
26745;DHT22;14342;50.960;13.880;2022-09-09T00:13:13;17.10;99.90
26745;DHT22;14342;50.960;13.880;2022-09-09T00:14:18;17.20;99.90
26745;DHT22;14342;50.960;13.880;2022-09-09T00:15:23;17.10;99.90
26745;DHT22;14342;50.960;13.880;2022-09-09T00:16:27;17.10;99.90
26745;DHT22;14342;50.960;13.880;2022-09-09T00:17:31;17.20;99.90
26745;DHT22;14342;50.960;13.880;2022-09-09T00:18:46;17.20;99.90
26745;DHT22;14342;50.960;13.880;2022-09-09T00:19:49;17.30;99.90
26745;DHT22;14342;50.960;13.880;2022-09-09T00:20:54;17.20;99.90
26745;DHT22;14342;50.960;13.880;2022-09-09T00:22:00;17.30;99.90
26745;DHT22;14342;50.960;13.880;2022-09-09T00:23:10;17.20;99.90
26745;DHT22;14342;50.960;13.880;2022-09-09T00:24:25;17.30;99.90
26745;DHT22;14342;50.960;13.880;2022-09-09T00:25:28;17.10;99.90
26745;DHT22;14342;50.960;13.880;2022-09-09T00:26:31;17.20;99.90
26745;DHT22;14342;50.960;13.880;2022-09-09T00:27:36;17.20;99.90
26745;DHT22;14342;50.960;13.880;2022-09-09T00:28:45;17.20;99.90
26745;DHT22;14342;50.960;13.880;2022-09-09T00:29:51;17.30;99.90
26745;DHT22;14342;50.960;13.880;2022-09-09T00:30:54;17.30;99.90
26745;DHT22;14342;50.960;13.880;2022-09-09T00:31:59;17.30;99.90
26745;DHT22;14342;50.960;13.880;2022-09-09T00:33:01;17.30;99.90
26745;DHT22;14342;50.960;13.880;2022-09-09T00:34:09;17.30;99.90
26745;DHT22;14342;50.960;13.880;2022-09-09T00:35:16;17.30;99.90
26745;DHT22;14342;50.960;13.880;2022-09-09T00:36:20;17.30;99.90
26745;DHT22;14342;50.960;13.880;2022-09-09T00:37:23;17.40;99.90
26745;DHT22;14342;50.960;13.880;2022-09-09T00:38:30;17.40;99.90
26745;DHT22;14342;50.960;13.880;2022-09-09T00:39:34;17.30;99.90
26745;DHT22;14342;50.960;13.880;2022-09-09T00:40:38;17.40;99.90
26745;DHT22;14342;50.960;13.880;2022-09-09T00:41:46;17.40;99.90
26745;DHT22;14342;50.960;13.880;2022-09-09T00:42:54;17.40;99.90
26745;DHT22;14342;50.960;13.880;2022-09-09T00:44:00;17.40;99.90
26745;DHT22;14342;50.960;13.880;2022-09-09T00:45:05;17.40;99.90
26745;DHT22;14342;50.960;13.880;2022-09-09T00:47:44;17.40;99.90
26745;DHT22;14342;50.960;13.880;2022-09-09T00:48:48;17.30;99.90
26745;DHT22;14342;50.960;13.880;2022-09-09T00:49:56;17.30;99.90
26745;DHT22;14342;50.960;13.880;2022-09-09T00:51:02;17.30;99.90
26745;DHT22;14342;50.960;13.880;2022-09-09T00:52:10;17.30;99.90
26745;DHT22;14342;50.960;13.880;2022-09-09T00:53:17;17.30;99.90
26745;DHT22;14342;50.960;13.880;2022-09-09T00:54:26;17.30;99.90
26745;DHT22;14342;50.960;13.880;2022-09-09T00:55:33;17.30;99.90
26745;DHT22;14342;50.960;13.880;2022-09-09T00:56:36;17.30;99.90
26745;DHT22;14342;50.960;13.880;2022-09-09T00:57:42;17.30;99.90
26745;DHT22;14342;50.960;13.880;2022-09-09T00:58:47;17.30;99.90
26745;DHT22;14342;50.960;13.880;2022-09-09T00:59:56;17.30;99.90
26745;DHT22;14342;50.960;13.880;2022-09-09T01:01:01;17.30;99.90
26745;DHT22;14342;50.960;13.880;2022-09-09T01:02:06;17.30;99.90
26745;DHT22;14342;50.960;13.880;2022-09-09T01:03:18;17.30;99.90
26745;DHT22;14342;50.960;13.880;2022-09-09T01:04:22;17.30;99.90
26745;DHT22;14342;50.960;13.880;2022-09-09T01:05:29;17.20;99.90
26745;DHT22;14342;50.960;13.880;2022-09-09T01:06:34;17.30;99.90
26745;DHT22;14342;50.960;13.880;2022-09-09T01:07:37;17.30;99.90
26745;DHT22;14342;50.960;13.880;2022-09-09T01:10:05;17.20;99.90
26745;DHT22;14342;50.960;13.880;2022-09-09T01:11:09;17.10;99.90
26745;DHT22;14342;50.960;13.880;2022-09-09T01:12:14;17.10;99.90
26745;DHT22;14342;50.960;13.880;2022-09-09T01:13:19;16.90;99.90
26745;DHT22;14342;50.960;13.880;2022-09-09T01:14:30;17.00;99.90
26745;DHT22;14342;50.960;13.880;2022-09-09T01:15:32;17.00;99.90
26745;DHT22;14342;50.960;13.880;2022-09-09T01:16:35;17.00;99.90
26745;DHT22;14342;50.960;13.880;2022-09-09T01:17:38;16.90;99.90
26745;DHT22;14342;50.960;13.880;2022-09-09T01:18:43;17.00;99.90
26745;DHT22;14342;50.960;13.880;2022-09-09T01:19:47;17.00;99.90
26745;DHT22;14342;50.960;13.880;2022-09-09T01:20:55;17.00;99.90
26745;DHT22;14342;50.960;13.880;2022-09-09T01:22:01;17.00;99.90
26745;DHT22;14342;50.960;13.880;2022-09-09T01:23:08;17.00;99.90
26745;DHT22;14342;50.960;13.880;2022-09-09T01:24:19;17.00;99.90
26745;DHT22;14342;50.960;13.880;2022-09-09T01:26:45;16.90;99.90
26745;DHT22;14342;50.960;13.880;2022-09-09T01:27:46;16.90;99.90
26745;DHT22;14342;50.960;13.880;2022-09-09T01:28:50;16.90;99.90
26745;DHT22;14342;50.960;13.880;2022-09-09T01:29:53;16.90;99.90
26745;DHT22;14342;50.960;13.880;2022-09-09T01:30:54;16.90;99.90
26745;DHT22;14342;50.960;13.880;2022-09-09T01:31:57;16.90;99.90
26745;DHT22;14342;50.960;13.880;2022-09-09T01:32:59;16.90;99.90
26745;DHT22;14342;50.960;13.880;2022-09-09T01:34:00;16.90;99.90
26745;DHT22;14342;50.960;13.880;2022-09-09T01:35:02;16.90;99.90
26745;DHT22;14342;50.960;13.880;2022-09-09T01:36:04;16.90;99.90
26745;DHT22;14342;50.960;13.880;2022-09-09T01:37:08;16.90;99.90
26745;DHT22;14342;50.960;13.880;2022-09-09T01:38:10;16.90;99.90
26745;DHT22;14342;50.960;13.880;2022-09-09T01:39:11;16.90;99.90
26745;DHT22;14342;50.960;13.880;2022-09-09T01:40:12;16.90;99.90
26745;DHT22;14342;50.960;13.880;2022-09-09T01:41:14;16.80;99.90
26745;DHT22;14342;50.960;13.880;2022-09-09T01:42:16;16.90;99.90
26745;DHT22;14342;50.960;13.880;2022-09-09T01:43:19;16.80;99.90
26745;DHT22;14342;50.960;13.880;2022-09-09T01:44:20;16.90;99.90
26745;DHT22;14342;50.960;13.880;2022-09-09T01:45:22;16.80;99.90
26745;DHT22;14342;50.960;13.880;2022-09-09T01:46:24;16.70;99.90
26745;DHT22;14342;50.960;13.880;2022-09-09T01:47:26;16.60;99.90
26745;DHT22;14342;50.960;13.880;2022-09-09T01:48:27;16.60;99.90
26745;DHT22;14342;50.960;13.880;2022-09-09T01:49:29;16.60;99.90
26745;DHT22;14342;50.960;13.880;2022-09-09T01:50:30;16.70;99.90
26745;DHT22;14342;50.960;13.880;2022-09-09T01:51:31;16.70;99.90
26745;DHT22;14342;50.960;13.880;2022-09-09T01:52:32;16.60;99.90
26745;DHT22;14342;50.960;13.880;2022-09-09T01:53:36;16.60;99.90
26745;DHT22;14342;50.960;13.880;2022-09-09T01:54:37;16.30;99.90
26745;DHT22;14342;50.960;13.880;2022-09-09T01:55:39;16.50;99.90
26745;DHT22;14342;50.960;13.880;2022-09-09T01:56:43;16.60;99.90
26745;DHT22;14342;50.960;13.880;2022-09-09T01:57:51;16.60;99.90
26745;DHT22;14342;50.960;13.880;2022-09-09T01:58:58;16.60;99.90
26745;DHT22;14342;50.960;13.880;2022-09-09T02:00:02;16.60;99.90
26745;DHT22;14342;50.960;13.880;2022-09-09T02:01:06;16.50;99.90
26745;DHT22;14342;50.960;13.880;2022-09-09T02:02:11;16.60;99.90
26745;DHT22;14342;50.960;13.880;2022-09-09T02:03:14;16.60;99.90
26745;DHT22;14342;50.960;13.880;2022-09-09T02:04:22;16.60;99.90
26745;DHT22;14342;50.960;13.880;2022-09-09T02:05:27;16.60;99.90
26745;DHT22;14342;50.960;13.880;2022-09-09T02:06:35;16.70;99.90
26745;DHT22;14342;50.960;13.880;2022-09-09T02:07:38;16.70;99.90
26745;DHT22;14342;50.960;13.880;2022-09-09T02:08:40;16.80;99.90
26745;DHT22;14342;50.960;13.880;2022-09-09T02:09:43;16.80;99.90
26745;DHT22;14342;50.960;13.880;2022-09-09T02:10:48;16.80;99.90
26745;DHT22;14342;50.960;13.880;2022-09-09T02:11:52;16.90;99.90
26745;DHT22;14342;50.960;13.880;2022-09-09T02:13:00;16.90;99.90
26745;DHT22;14342;50.960;13.880;2022-09-09T02:14:02;16.90;99.90
26745;DHT22;14342;50.960;13.880;2022-09-09T02:15:08;16.80;99.90
26745;DHT22;14342;50.960;13.880;2022-09-09T02:16:12;16.80;99.90
26745;DHT22;14342;50.960;13.880;2022-09-09T02:17:16;16.80;99.90
26745;DHT22;14342;50.960;13.880;2022-09-09T02:18:20;16.90;99.90
26745;DHT22;14342;50.960;13.880;2022-09-09T02:19:24;16.90;99.90
26745;DHT22;14342;50.960;13.880;2022-09-09T02:20:27;16.90;99.90
26745;DHT22;14342;50.960;13.880;2022-09-09T02:21:32;16.90;99.90
26745;DHT22;14342;50.960;13.880;2022-09-09T02:22:35;16.90;99.90
26745;DHT22;14342;50.960;13.880;2022-09-09T02:23:39;17.00;99.90
26745;DHT22;14342;50.960;13.880;2022-09-09T02:24:41;17.00;99.90
26745;DHT22;14342;50.960;13.880;2022-09-09T02:25:43;17.00;99.90
26745;DHT22;14342;50.960;13.880;2022-09-09T02:26:45;16.90;99.90
26745;DHT22;14342;50.960;13.880;2022-09-09T02:27:49;16.90;99.90
26745;DHT22;14342;50.960;13.880;2022-09-09T02:28:53;16.80;99.90
26745;DHT22;14342;50.960;13.880;2022-09-09T02:29:56;16.70;99.90
26745;DHT22;14342;50.960;13.880;2022-09-09T02:30:58;16.60;99.90
26745;DHT22;14342;50.960;13.880;2022-09-09T02:32:01;16.60;99.90
26745;DHT22;14342;50.960;13.880;2022-09-09T02:33:03;16.60;99.90
26745;DHT22;14342;50.960;13.880;2022-09-09T02:34:06;16.60;99.90
26745;DHT22;14342;50.960;13.880;2022-09-09T02:35:12;16.60;99.90
26745;DHT22;14342;50.960;13.880;2022-09-09T02:36:14;16.70;99.90
26745;DHT22;14342;50.960;13.880;2022-09-09T02:37:17;16.70;99.90
26745;DHT22;14342;50.960;13.880;2022-09-09T02:38:20;16.50;99.90
26745;DHT22;14342;50.960;13.880;2022-09-09T02:39:21;16.20;99.90
26745;DHT22;14342;50.960;13.880;2022-09-09T02:40:23;16.00;99.90
26745;DHT22;14342;50.960;13.880;2022-09-09T02:41:24;15.90;99.90
26745;DHT22;14342;50.960;13.880;2022-09-09T02:42:27;15.90;99.90
26745;DHT22;14342;50.960;13.880;2022-09-09T02:43:30;15.90;99.90
26745;DHT22;14342;50.960;13.880;2022-09-09T02:44:34;15.80;99.90
26745;DHT22;14342;50.960;13.880;2022-09-09T02:45:36;15.80;99.90
26745;DHT22;14342;50.960;13.880;2022-09-09T02:46:50;15.90;99.90
26745;DHT22;14342;50.960;13.880;2022-09-09T02:47:55;15.90;99.90
26745;DHT22;14342;50.960;13.880;2022-09-09T02:49:00;16.00;99.90
26745;DHT22;14342;50.960;13.880;2022-09-09T02:50:05;16.10;99.90
26745;DHT22;14342;50.960;13.880;2022-09-09T02:51:10;16.20;99.90
26745;DHT22;14342;50.960;13.880;2022-09-09T02:52:14;16.30;99.90
26745;DHT22;14342;50.960;13.880;2022-09-09T02:53:17;16.30;99.90
26745;DHT22;14342;50.960;13.880;2022-09-09T02:54:22;16.40;99.90
26745;DHT22;14342;50.960;13.880;2022-09-09T02:55:29;16.40;99.90
26745;DHT22;14342;50.960;13.880;2022-09-09T02:56:33;16.40;99.90
26745;DHT22;14342;50.960;13.880;2022-09-09T02:57:36;16.40;99.90
26745;DHT22;14342;50.960;13.880;2022-09-09T02:58:38;16.60;99.90
26745;DHT22;14342;50.960;13.880;2022-09-09T02:59:41;16.40;99.90
26745;DHT22;14342;50.960;13.880;2022-09-09T03:00:45;16.40;99.90
26745;DHT22;14342;50.960;13.880;2022-09-09T03:01:46;16.40;99.90
26745;DHT22;14342;50.960;13.880;2022-09-09T03:02:48;16.30;99.90
26745;DHT22;14342;50.960;13.880;2022-09-09T03:03:49;16.30;99.90
26745;DHT22;14342;50.960;13.880;2022-09-09T03:04:51;16.40;99.90
26745;DHT22;14342;50.960;13.880;2022-09-09T03:05:52;16.30;99.90
26745;DHT22;14342;50.960;13.880;2022-09-09T03:06:53;16.30;99.90
26745;DHT22;14342;50.960;13.880;2022-09-09T03:07:54;16.20;99.90
26745;DHT22;14342;50.960;13.880;2022-09-09T03:08:56;16.10;99.90
26745;DHT22;14342;50.960;13.880;2022-09-09T03:10:01;16.10;99.90
26745;DHT22;14342;50.960;13.880;2022-09-09T03:11:02;16.20;99.90
26745;DHT22;14342;50.960;13.880;2022-09-09T03:12:03;16.20;99.90
26745;DHT22;14342;50.960;13.880;2022-09-09T03:13:05;16.20;99.90
26745;DHT22;14342;50.960;13.880;2022-09-09T03:14:06;16.20;99.90
26745;DHT22;14342;50.960;13.880;2022-09-09T03:15:10;16.20;99.90
26745;DHT22;14342;50.960;13.880;2022-09-09T03:16:12;16.20;99.90
26745;DHT22;14342;50.960;13.880;2022-09-09T03:17:13;16.20;99.90
26745;DHT22;14342;50.960;13.880;2022-09-09T03:18:14;16.50;99.90
26745;DHT22;14342;50.960;13.880;2022-09-09T03:19:15;16.30;99.90
26745;DHT22;14342;50.960;13.880;2022-09-09T03:20:17;16.30;99.90
26745;DHT22;14342;50.960;13.880;2022-09-09T03:21:18;16.30;99.90
26745;DHT22;14342;50.960;13.880;2022-09-09T03:22:19;16.30;99.90
26745;DHT22;14342;50.960;13.880;2022-09-09T03:23:21;16.30;99.90
26745;DHT22;14342;50.960;13.880;2022-09-09T03:24:23;16.30;99.90
26745;DHT22;14342;50.960;13.880;2022-09-09T03:25:24;16.30;99.90
26745;DHT22;14342;50.960;13.880;2022-09-09T03:26:26;16.30;99.90
26745;DHT22;14342;50.960;13.880;2022-09-09T03:27:26;16.40;99.90
26745;DHT22;14342;50.960;13.880;2022-09-09T03:28:28;16.40;99.90
26745;DHT22;14342;50.960;13.880;2022-09-09T03:29:31;16.40;99.90
26745;DHT22;14342;50.960;13.880;2022-09-09T03:30:34;16.40;99.90
26745;DHT22;14342;50.960;13.880;2022-09-09T03:31:35;16.30;99.90
26745;DHT22;14342;50.960;13.880;2022-09-09T03:32:37;16.30;99.90
26745;DHT22;14342;50.960;13.880;2022-09-09T03:33:38;16.30;99.90
26745;DHT22;14342;50.960;13.880;2022-09-09T03:34:41;16.30;99.90
26745;DHT22;14342;50.960;13.880;2022-09-09T03:35:44;16.20;99.90
26745;DHT22;14342;50.960;13.880;2022-09-09T03:36:48;16.10;99.90
26745;DHT22;14342;50.960;13.880;2022-09-09T03:37:50;16.10;99.90
26745;DHT22;14342;50.960;13.880;2022-09-09T03:38:51;16.00;99.90
26745;DHT22;14342;50.960;13.880;2022-09-09T03:39:54;16.00;99.90
26745;DHT22;14342;50.960;13.880;2022-09-09T03:40:55;16.00;99.90
26745;DHT22;14342;50.960;13.880;2022-09-09T03:41:57;16.10;99.90
26745;DHT22;14342;50.960;13.880;2022-09-09T03:42:58;16.10;99.90
26745;DHT22;14342;50.960;13.880;2022-09-09T03:43:59;16.00;99.90
26745;DHT22;14342;50.960;13.880;2022-09-09T03:45:00;16.00;99.90
26745;DHT22;14342;50.960;13.880;2022-09-09T03:46:03;16.00;99.90
26745;DHT22;14342;50.960;13.880;2022-09-09T03:47:04;16.10;99.90
26745;DHT22;14342;50.960;13.880;2022-09-09T03:48:06;16.10;99.90
26745;DHT22;14342;50.960;13.880;2022-09-09T03:49:07;16.10;99.90
26745;DHT22;14342;50.960;13.880;2022-09-09T03:50:10;16.20;99.90
26745;DHT22;14342;50.960;13.880;2022-09-09T03:51:11;16.20;99.90
26745;DHT22;14342;50.960;13.880;2022-09-09T03:52:12;16.10;99.90
26745;DHT22;14342;50.960;13.880;2022-09-09T03:53:13;16.10;99.90
26745;DHT22;14342;50.960;13.880;2022-09-09T03:54:15;16.10;99.90
26745;DHT22;14342;50.960;13.880;2022-09-09T03:55:16;16.10;99.90
26745;DHT22;14342;50.960;13.880;2022-09-09T03:56:17;16.10;99.90
26745;DHT22;14342;50.960;13.880;2022-09-09T03:57:18;16.10;99.90
26745;DHT22;14342;50.960;13.880;2022-09-09T03:58:20;16.10;99.90
26745;DHT22;14342;50.960;13.880;2022-09-09T03:59:20;16.10;99.90
26745;DHT22;14342;50.960;13.880;2022-09-09T04:00:23;16.10;99.90
26745;DHT22;14342;50.960;13.880;2022-09-09T04:01:25;16.10;99.90
26745;DHT22;14342;50.960;13.880;2022-09-09T04:02:27;16.10;99.90
26745;DHT22;14342;50.960;13.880;2022-09-09T04:03:28;16.00;99.90
26745;DHT22;14342;50.960;13.880;2022-09-09T04:04:30;16.00;99.90
26745;DHT22;14342;50.960;13.880;2022-09-09T04:05:30;15.90;99.90
26745;DHT22;14342;50.960;13.880;2022-09-09T04:06:34;15.90;99.90
26745;DHT22;14342;50.960;13.880;2022-09-09T04:07:36;15.90;99.90
26745;DHT22;14342;50.960;13.880;2022-09-09T04:08:36;15.80;99.90
26745;DHT22;14342;50.960;13.880;2022-09-09T04:09:38;15.80;99.90
26745;DHT22;14342;50.960;13.880;2022-09-09T04:10:39;15.70;99.90
26745;DHT22;14342;50.960;13.880;2022-09-09T04:11:42;15.70;99.90
26745;DHT22;14342;50.960;13.880;2022-09-09T04:12:42;15.60;99.90
26745;DHT22;14342;50.960;13.880;2022-09-09T04:13:44;15.60;99.90
26745;DHT22;14342;50.960;13.880;2022-09-09T04:14:45;15.60;99.90
26745;DHT22;14342;50.960;13.880;2022-09-09T04:15:50;15.60;99.90
26745;DHT22;14342;50.960;13.880;2022-09-09T04:16:52;15.60;99.90
26745;DHT22;14342;50.960;13.880;2022-09-09T04:17:53;15.60;99.90
26745;DHT22;14342;50.960;13.880;2022-09-09T04:18:54;15.70;99.90
26745;DHT22;14342;50.960;13.880;2022-09-09T04:19:56;16.00;99.90
26745;DHT22;14342;50.960;13.880;2022-09-09T04:20:57;15.70;99.90
26745;DHT22;14342;50.960;13.880;2022-09-09T04:21:59;15.70;99.90
26745;DHT22;14342;50.960;13.880;2022-09-09T04:22:59;15.80;99.90
26745;DHT22;14342;50.960;13.880;2022-09-09T04:24:01;15.80;99.90
26745;DHT22;14342;50.960;13.880;2022-09-09T04:25:02;15.90;99.90
26745;DHT22;14342;50.960;13.880;2022-09-09T04:26:04;15.90;99.90
26745;DHT22;14342;50.960;13.880;2022-09-09T04:27:05;16.00;99.90
26745;DHT22;14342;50.960;13.880;2022-09-09T04:28:06;16.00;99.90
26745;DHT22;14342;50.960;13.880;2022-09-09T04:29:07;16.00;99.90
26745;DHT22;14342;50.960;13.880;2022-09-09T04:30:09;15.90;99.90
26745;DHT22;14342;50.960;13.880;2022-09-09T04:31:11;15.80;99.90
26745;DHT22;14342;50.960;13.880;2022-09-09T04:32:17;15.60;99.90
26745;DHT22;14342;50.960;13.880;2022-09-09T04:33:18;15.50;99.90
26745;DHT22;14342;50.960;13.880;2022-09-09T04:34:19;15.50;99.90
26745;DHT22;14342;50.960;13.880;2022-09-09T04:35:20;15.40;99.90
26745;DHT22;14342;50.960;13.880;2022-09-09T04:36:21;15.30;99.90
26745;DHT22;14342;50.960;13.880;2022-09-09T04:37:22;15.20;99.90
26745;DHT22;14342;50.960;13.880;2022-09-09T04:38:25;15.20;99.90
26745;DHT22;14342;50.960;13.880;2022-09-09T04:39:26;15.20;99.90
26745;DHT22;14342;50.960;13.880;2022-09-09T04:40:28;15.10;99.90
26745;DHT22;14342;50.960;13.880;2022-09-09T04:41:28;15.10;99.90
26745;DHT22;14342;50.960;13.880;2022-09-09T04:42:34;15.10;99.90
26745;DHT22;14342;50.960;13.880;2022-09-09T04:43:34;15.10;99.90
26745;DHT22;14342;50.960;13.880;2022-09-09T04:44:37;15.10;99.90
26745;DHT22;14342;50.960;13.880;2022-09-09T04:45:38;15.20;99.90
26745;DHT22;14342;50.960;13.880;2022-09-09T04:46:40;15.20;99.90
26745;DHT22;14342;50.960;13.880;2022-09-09T04:47:43;15.20;99.90
26745;DHT22;14342;50.960;13.880;2022-09-09T04:48:44;15.30;99.90
26745;DHT22;14342;50.960;13.880;2022-09-09T04:49:45;15.30;99.90
26745;DHT22;14342;50.960;13.880;2022-09-09T04:50:53;15.30;99.90
26745;DHT22;14342;50.960;13.880;2022-09-09T04:51:54;15.30;99.90
26745;DHT22;14342;50.960;13.880;2022-09-09T04:52:56;15.30;99.90
26745;DHT22;14342;50.960;13.880;2022-09-09T04:53:59;15.20;99.90
26745;DHT22;14342;50.960;13.880;2022-09-09T04:55:01;15.20;99.90
26745;DHT22;14342;50.960;13.880;2022-09-09T04:56:02;15.30;99.90
26745;DHT22;14342;50.960;13.880;2022-09-09T04:57:04;15.30;99.90
26745;DHT22;14342;50.960;13.880;2022-09-09T04:58:05;15.40;99.90
26745;DHT22;14342;50.960;13.880;2022-09-09T04:59:07;15.40;99.90
26745;DHT22;14342;50.960;13.880;2022-09-09T05:00:10;15.50;99.90
26745;DHT22;14342;50.960;13.880;2022-09-09T05:01:11;15.60;99.90
26745;DHT22;14342;50.960;13.880;2022-09-09T05:02:13;15.60;99.90
26745;DHT22;14342;50.960;13.880;2022-09-09T05:03:15;15.60;99.90
26745;DHT22;14342;50.960;13.880;2022-09-09T05:04:17;15.60;99.90
26745;DHT22;14342;50.960;13.880;2022-09-09T05:05:19;15.60;99.90
26745;DHT22;14342;50.960;13.880;2022-09-09T05:06:21;15.60;99.90
26745;DHT22;14342;50.960;13.880;2022-09-09T05:07:22;15.20;99.90
26745;DHT22;14342;50.960;13.880;2022-09-09T05:08:23;15.60;99.90
26745;DHT22;14342;50.960;13.880;2022-09-09T05:09:24;15.50;99.90
26745;DHT22;14342;50.960;13.880;2022-09-09T05:10:26;15.50;99.90
26745;DHT22;14342;50.960;13.880;2022-09-09T05:11:28;15.40;99.90
26745;DHT22;14342;50.960;13.880;2022-09-09T05:12:28;15.40;99.90
26745;DHT22;14342;50.960;13.880;2022-09-09T05:13:30;15.40;99.90
26745;DHT22;14342;50.960;13.880;2022-09-09T05:14:32;15.50;99.90
26745;DHT22;14342;50.960;13.880;2022-09-09T05:15:34;15.50;99.90
26745;DHT22;14342;50.960;13.880;2022-09-09T05:16:35;15.50;99.90
26745;DHT22;14342;50.960;13.880;2022-09-09T05:17:37;15.50;99.90
26745;DHT22;14342;50.960;13.880;2022-09-09T05:18:39;15.60;99.90
26745;DHT22;14342;50.960;13.880;2022-09-09T05:19:41;15.70;99.90
26745;DHT22;14342;50.960;13.880;2022-09-09T05:20:41;15.80;99.90
26745;DHT22;14342;50.960;13.880;2022-09-09T05:21:43;15.80;99.90
26745;DHT22;14342;50.960;13.880;2022-09-09T05:22:44;15.90;99.90
26745;DHT22;14342;50.960;13.880;2022-09-09T05:23:45;15.90;99.90
26745;DHT22;14342;50.960;13.880;2022-09-09T05:24:46;15.90;99.90
26745;DHT22;14342;50.960;13.880;2022-09-09T05:25:57;15.90;99.90
26745;DHT22;14342;50.960;13.880;2022-09-09T05:26:59;15.90;99.90
26745;DHT22;14342;50.960;13.880;2022-09-09T05:28:00;15.90;99.90
26745;DHT22;14342;50.960;13.880;2022-09-09T05:29:01;16.00;99.90
26745;DHT22;14342;50.960;13.880;2022-09-09T05:30:02;16.10;99.90
26745;DHT22;14342;50.960;13.880;2022-09-09T05:31:05;16.10;99.90
26745;DHT22;14342;50.960;13.880;2022-09-09T05:32:08;16.00;99.90
26745;DHT22;14342;50.960;13.880;2022-09-09T05:33:10;16.10;99.90
26745;DHT22;14342;50.960;13.880;2022-09-09T05:34:12;16.20;99.90
26745;DHT22;14342;50.960;13.880;2022-09-09T05:35:13;16.20;99.90
26745;DHT22;14342;50.960;13.880;2022-09-09T05:36:15;16.30;99.90
26745;DHT22;14342;50.960;13.880;2022-09-09T05:37:17;16.30;99.90
26745;DHT22;14342;50.960;13.880;2022-09-09T05:38:18;16.30;99.90
26745;DHT22;14342;50.960;13.880;2022-09-09T05:39:20;16.30;99.90
26745;DHT22;14342;50.960;13.880;2022-09-09T05:40:21;16.30;99.90
26745;DHT22;14342;50.960;13.880;2022-09-09T05:41:23;16.30;99.90
26745;DHT22;14342;50.960;13.880;2022-09-09T05:42:24;16.20;99.90
26745;DHT22;14342;50.960;13.880;2022-09-09T05:43:26;16.10;99.90
26745;DHT22;14342;50.960;13.880;2022-09-09T05:44:27;16.20;99.90
26745;DHT22;14342;50.960;13.880;2022-09-09T05:45:29;16.20;99.90
26745;DHT22;14342;50.960;13.880;2022-09-09T05:46:30;16.30;99.90
26745;DHT22;14342;50.960;13.880;2022-09-09T05:47:31;16.40;99.90
26745;DHT22;14342;50.960;13.880;2022-09-09T05:48:33;16.40;99.90
26745;DHT22;14342;50.960;13.880;2022-09-09T05:49:36;16.40;99.90
26745;DHT22;14342;50.960;13.880;2022-09-09T05:50:36;16.40;99.90
26745;DHT22;14342;50.960;13.880;2022-09-09T05:51:38;16.50;99.90
26745;DHT22;14342;50.960;13.880;2022-09-09T05:52:39;16.40;99.90
26745;DHT22;14342;50.960;13.880;2022-09-09T05:53:40;16.50;99.90
26745;DHT22;14342;50.960;13.880;2022-09-09T05:54:41;16.50;99.90
26745;DHT22;14342;50.960;13.880;2022-09-09T05:55:43;16.50;99.90
26745;DHT22;14342;50.960;13.880;2022-09-09T05:56:45;16.50;99.90
26745;DHT22;14342;50.960;13.880;2022-09-09T05:57:48;16.50;99.90
26745;DHT22;14342;50.960;13.880;2022-09-09T05:58:49;16.50;99.90
26745;DHT22;14342;50.960;13.880;2022-09-09T05:59:51;16.50;99.90
26745;DHT22;14342;50.960;13.880;2022-09-09T06:00:59;16.50;99.90
26745;DHT22;14342;50.960;13.880;2022-09-09T06:02:01;16.50;99.90
26745;DHT22;14342;50.960;13.880;2022-09-09T06:03:02;16.60;99.90
26745;DHT22;14342;50.960;13.880;2022-09-09T06:04:03;16.60;99.90
26745;DHT22;14342;50.960;13.880;2022-09-09T06:05:07;16.70;99.90
26745;DHT22;14342;50.960;13.880;2022-09-09T06:06:09;16.70;99.90
26745;DHT22;14342;50.960;13.880;2022-09-09T06:07:11;16.60;99.90
26745;DHT22;14342;50.960;13.880;2022-09-09T06:08:13;16.50;99.90
26745;DHT22;14342;50.960;13.880;2022-09-09T06:09:15;16.40;99.90
26745;DHT22;14342;50.960;13.880;2022-09-09T06:10:15;16.30;99.90
26745;DHT22;14342;50.960;13.880;2022-09-09T06:11:17;16.20;99.90
26745;DHT22;14342;50.960;13.880;2022-09-09T06:12:18;16.10;99.90
26745;DHT22;14342;50.960;13.880;2022-09-09T06:13:21;16.00;99.90
26745;DHT22;14342;50.960;13.880;2022-09-09T06:14:21;16.00;99.90
26745;DHT22;14342;50.960;13.880;2022-09-09T06:15:23;16.00;99.90
26745;DHT22;14342;50.960;13.880;2022-09-09T06:16:24;16.00;99.90
26745;DHT22;14342;50.960;13.880;2022-09-09T06:17:26;16.10;99.90
26745;DHT22;14342;50.960;13.880;2022-09-09T06:18:27;16.20;99.90
26745;DHT22;14342;50.960;13.880;2022-09-09T06:19:29;16.30;99.90
26745;DHT22;14342;50.960;13.880;2022-09-09T06:20:32;16.40;99.90
26745;DHT22;14342;50.960;13.880;2022-09-09T06:21:35;16.50;99.90
26745;DHT22;14342;50.960;13.880;2022-09-09T06:22:38;16.50;99.90
26745;DHT22;14342;50.960;13.880;2022-09-09T06:23:40;16.50;99.90
26745;DHT22;14342;50.960;13.880;2022-09-09T06:24:41;16.60;99.90
26745;DHT22;14342;50.960;13.880;2022-09-09T06:25:42;16.70;99.90
26745;DHT22;14342;50.960;13.880;2022-09-09T06:26:43;16.80;99.90
26745;DHT22;14342;50.960;13.880;2022-09-09T06:27:48;16.80;99.90
26745;DHT22;14342;50.960;13.880;2022-09-09T06:28:50;16.80;99.90
26745;DHT22;14342;50.960;13.880;2022-09-09T06:29:53;16.80;99.90
26745;DHT22;14342;50.960;13.880;2022-09-09T06:30:56;16.90;99.90
26745;DHT22;14342;50.960;13.880;2022-09-09T06:31:58;16.90;99.90
26745;DHT22;14342;50.960;13.880;2022-09-09T06:33:00;16.90;99.90
26745;DHT22;14342;50.960;13.880;2022-09-09T06:34:01;16.80;99.90
26745;DHT22;14342;50.960;13.880;2022-09-09T06:35:03;16.90;99.90